sensor_id;sensor_type;location;lat;lon;timestamp;P1;durP1;ratioP1;P2;durP2;ratioP2
52031;SDS011;38044;45.148;39.604;2022-09-24T00:01:58;13.30;;;8.48;;
52031;SDS011;38044;45.148;39.604;2022-09-24T00:04:25;11.88;;;8.10;;
52031;SDS011;38044;45.148;39.604;2022-09-24T00:06:51;11.18;;;8.93;;
52031;SDS011;38044;45.148;39.604;2022-09-24T00:09:18;12.43;;;8.90;;
52031;SDS011;38044;45.148;39.604;2022-09-24T00:11:46;13.93;;;9.75;;
52031;SDS011;38044;45.148;39.604;2022-09-24T00:14:14;11.93;;;8.85;;
52031;SDS011;38044;45.148;39.604;2022-09-24T00:16:42;11.70;;;8.70;;
52031;SDS011;38044;45.148;39.604;2022-09-24T00:19:10;16.67;;;9.13;;
52031;SDS011;38044;45.148;39.604;2022-09-24T00:21:38;10.65;;;8.60;;
52031;SDS011;38044;45.148;39.604;2022-09-24T00:24:06;10.55;;;9.10;;
52031;SDS011;38044;45.148;39.604;2022-09-24T00:26:34;11.77;;;9.48;;
52031;SDS011;38044;45.148;39.604;2022-09-24T00:29:19;13.65;;;8.95;;
52031;SDS011;38044;45.148;39.604;2022-09-24T00:31:48;13.95;;;9.18;;
52031;SDS011;38044;45.148;39.604;2022-09-24T00:34:15;12.75;;;9.15;;
52031;SDS011;38044;45.148;39.604;2022-09-24T00:36:42;10.32;;;8.07;;
52031;SDS011;38044;45.148;39.604;2022-09-24T00:39:10;12.15;;;8.95;;
52031;SDS011;38044;45.148;39.604;2022-09-24T00:41:38;11.82;;;8.82;;
52031;SDS011;38044;45.148;39.604;2022-09-24T00:49:38;10.63;;;8.98;;
52031;SDS011;38044;45.148;39.604;2022-09-24T00:52:04;10.80;;;8.10;;
52031;SDS011;38044;45.148;39.604;2022-09-24T00:54:31;10.63;;;8.35;;
52031;SDS011;38044;45.148;39.604;2022-09-24T00:56:57;56.50;;;10.65;;
52031;SDS011;38044;45.148;39.604;2022-09-24T00:59:25;66.50;;;10.93;;
52031;SDS011;38044;45.148;39.604;2022-09-24T01:01:53;40.78;;;9.43;;
52031;SDS011;38044;45.148;39.604;2022-09-24T01:04:23;21.92;;;10.45;;
52031;SDS011;38044;45.148;39.604;2022-09-24T01:06:51;10.70;;;9.52;;
52031;SDS011;38044;45.148;39.604;2022-09-24T01:09:18;12.02;;;10.10;;
52031;SDS011;38044;45.148;39.604;2022-09-24T01:17:20;14.13;;;9.77;;
52031;SDS011;38044;45.148;39.604;2022-09-24T01:29:02;11.90;;;10.02;;
52031;SDS011;38044;45.148;39.604;2022-09-24T01:32:03;14.13;;;10.05;;
52031;SDS011;38044;45.148;39.604;2022-09-24T01:34:44;13.93;;;8.68;;
52031;SDS011;38044;45.148;39.604;2022-09-24T01:37:17;11.52;;;9.23;;
52031;SDS011;38044;45.148;39.604;2022-09-24T01:39:46;10.60;;;8.88;;
52031;SDS011;38044;45.148;39.604;2022-09-24T01:42:15;11.50;;;9.55;;
52031;SDS011;38044;45.148;39.604;2022-09-24T01:44:44;12.85;;;9.95;;
52031;SDS011;38044;45.148;39.604;2022-09-24T01:47:15;11.38;;;9.27;;
52031;SDS011;38044;45.148;39.604;2022-09-24T01:49:45;12.15;;;9.77;;
52031;SDS011;38044;45.148;39.604;2022-09-24T01:52:12;12.48;;;8.93;;
52031;SDS011;38044;45.148;39.604;2022-09-24T01:54:42;11.15;;;9.95;;
52031;SDS011;38044;45.148;39.604;2022-09-24T01:57:22;10.65;;;9.55;;
52031;SDS011;38044;45.148;39.604;2022-09-24T02:00:03;13.13;;;10.13;;
52031;SDS011;38044;45.148;39.604;2022-09-24T02:02:32;14.43;;;10.32;;
52031;SDS011;38044;45.148;39.604;2022-09-24T02:10:29;12.40;;;9.57;;
52031;SDS011;38044;45.148;39.604;2022-09-24T02:13:01;10.82;;;9.73;;
52031;SDS011;38044;45.148;39.604;2022-09-24T02:15:33;11.68;;;9.95;;
52031;SDS011;38044;45.148;39.604;2022-09-24T02:20:31;13.52;;;10.45;;
52031;SDS011;38044;45.148;39.604;2022-09-24T02:22:59;12.20;;;9.57;;
52031;SDS011;38044;45.148;39.604;2022-09-24T02:25:29;13.10;;;9.45;;
52031;SDS011;38044;45.148;39.604;2022-09-24T02:28:06;13.77;;;10.75;;
52031;SDS011;38044;45.148;39.604;2022-09-24T02:30:34;15.32;;;11.75;;
52031;SDS011;38044;45.148;39.604;2022-09-24T02:33:06;17.13;;;11.68;;
52031;SDS011;38044;45.148;39.604;2022-09-24T02:35:55;17.70;;;11.80;;
52031;SDS011;38044;45.148;39.604;2022-09-24T02:38:21;14.00;;;11.32;;
52031;SDS011;38044;45.148;39.604;2022-09-24T02:40:48;19.10;;;11.90;;
52031;SDS011;38044;45.148;39.604;2022-09-24T02:43:14;15.43;;;11.88;;
52031;SDS011;38044;45.148;39.604;2022-09-24T02:45:40;16.10;;;12.07;;
52031;SDS011;38044;45.148;39.604;2022-09-24T02:48:06;16.20;;;11.90;;
52031;SDS011;38044;45.148;39.604;2022-09-24T02:50:32;14.10;;;11.18;;
52031;SDS011;38044;45.148;39.604;2022-09-24T02:52:58;16.85;;;11.80;;
52031;SDS011;38044;45.148;39.604;2022-09-24T02:55:24;16.30;;;10.88;;
52031;SDS011;38044;45.148;39.604;2022-09-24T02:57:49;15.25;;;11.85;;
52031;SDS011;38044;45.148;39.604;2022-09-24T03:00:16;16.98;;;12.00;;
52031;SDS011;38044;45.148;39.604;2022-09-24T03:02:45;17.95;;;12.07;;
52031;SDS011;38044;45.148;39.604;2022-09-24T03:05:12;19.00;;;12.20;;
52031;SDS011;38044;45.148;39.604;2022-09-24T03:07:42;16.45;;;12.75;;
52031;SDS011;38044;45.148;39.604;2022-09-24T03:10:09;13.93;;;12.10;;
52031;SDS011;38044;45.148;39.604;2022-09-24T03:12:35;15.50;;;12.05;;
52031;SDS011;38044;45.148;39.604;2022-09-24T03:15:01;19.13;;;12.52;;
52031;SDS011;38044;45.148;39.604;2022-09-24T03:17:28;14.68;;;11.85;;
52031;SDS011;38044;45.148;39.604;2022-09-24T03:19:53;14.68;;;11.82;;
52031;SDS011;38044;45.148;39.604;2022-09-24T03:22:19;17.13;;;11.82;;
52031;SDS011;38044;45.148;39.604;2022-09-24T03:24:45;13.48;;;11.55;;
52031;SDS011;38044;45.148;39.604;2022-09-24T03:27:11;18.80;;;11.77;;
52031;SDS011;38044;45.148;39.604;2022-09-24T03:29:37;14.45;;;11.02;;
52031;SDS011;38044;45.148;39.604;2022-09-24T03:32:21;15.13;;;11.32;;
52031;SDS011;38044;45.148;39.604;2022-09-24T03:34:47;15.35;;;11.05;;
52031;SDS011;38044;45.148;39.604;2022-09-24T03:37:13;12.95;;;10.43;;
52031;SDS011;38044;45.148;39.604;2022-09-24T03:39:39;16.13;;;10.27;;
52031;SDS011;38044;45.148;39.604;2022-09-24T03:42:05;13.48;;;10.63;;
52031;SDS011;38044;45.148;39.604;2022-09-24T03:44:30;13.48;;;10.57;;
52031;SDS011;38044;45.148;39.604;2022-09-24T03:46:56;13.13;;;10.52;;
52031;SDS011;38044;45.148;39.604;2022-09-24T03:49:22;11.60;;;9.95;;
52031;SDS011;38044;45.148;39.604;2022-09-24T03:51:48;13.32;;;10.55;;
52031;SDS011;38044;45.148;39.604;2022-09-24T03:54:14;13.73;;;10.05;;
52031;SDS011;38044;45.148;39.604;2022-09-24T03:56:41;13.82;;;10.45;;
52031;SDS011;38044;45.148;39.604;2022-09-24T03:59:10;13.13;;;11.10;;
52031;SDS011;38044;45.148;39.604;2022-09-24T04:01:36;13.02;;;11.10;;
52031;SDS011;38044;45.148;39.604;2022-09-24T04:04:02;13.20;;;11.45;;
52031;SDS011;38044;45.148;39.604;2022-09-24T04:06:29;13.05;;;11.23;;
52031;SDS011;38044;45.148;39.604;2022-09-24T04:08:56;12.73;;;11.10;;
52031;SDS011;38044;45.148;39.604;2022-09-24T04:11:22;14.88;;;10.65;;
52031;SDS011;38044;45.148;39.604;2022-09-24T04:13:49;18.50;;;10.80;;
52031;SDS011;38044;45.148;39.604;2022-09-24T04:16:15;19.27;;;11.13;;
52031;SDS011;38044;45.148;39.604;2022-09-24T04:18:41;17.13;;;11.35;;
52031;SDS011;38044;45.148;39.604;2022-09-24T04:21:07;23.27;;;10.98;;
52031;SDS011;38044;45.148;39.604;2022-09-24T04:23:34;16.38;;;11.98;;
52031;SDS011;38044;45.148;39.604;2022-09-24T04:26:00;23.00;;;11.30;;
52031;SDS011;38044;45.148;39.604;2022-09-24T04:28:27;19.88;;;11.55;;
52031;SDS011;38044;45.148;39.604;2022-09-24T04:30:54;18.40;;;10.95;;
52031;SDS011;38044;45.148;39.604;2022-09-24T04:33:20;14.38;;;11.52;;
52031;SDS011;38044;45.148;39.604;2022-09-24T04:35:46;16.65;;;11.48;;
52031;SDS011;38044;45.148;39.604;2022-09-24T04:38:12;14.32;;;10.73;;
52031;SDS011;38044;45.148;39.604;2022-09-24T04:40:38;16.92;;;10.68;;
52031;SDS011;38044;45.148;39.604;2022-09-24T04:43:04;15.18;;;10.23;;
52031;SDS011;38044;45.148;39.604;2022-09-24T04:45:31;16.98;;;10.68;;
52031;SDS011;38044;45.148;39.604;2022-09-24T04:47:58;17.70;;;10.68;;
52031;SDS011;38044;45.148;39.604;2022-09-24T04:50:24;14.55;;;10.85;;
52031;SDS011;38044;45.148;39.604;2022-09-24T04:52:52;12.02;;;10.55;;
52031;SDS011;38044;45.148;39.604;2022-09-24T04:55:18;13.02;;;10.82;;
52031;SDS011;38044;45.148;39.604;2022-09-24T04:57:45;14.13;;;11.20;;
52031;SDS011;38044;45.148;39.604;2022-09-24T05:00:12;12.38;;;11.13;;
52031;SDS011;38044;45.148;39.604;2022-09-24T05:02:41;13.48;;;10.85;;
52031;SDS011;38044;45.148;39.604;2022-09-24T05:05:07;13.43;;;10.80;;
52031;SDS011;38044;45.148;39.604;2022-09-24T05:07:35;12.60;;;10.90;;
52031;SDS011;38044;45.148;39.604;2022-09-24T05:10:01;13.65;;;10.68;;
52031;SDS011;38044;45.148;39.604;2022-09-24T05:12:28;14.80;;;10.95;;
52031;SDS011;38044;45.148;39.604;2022-09-24T05:14:54;14.27;;;11.23;;
52031;SDS011;38044;45.148;39.604;2022-09-24T05:17:20;12.98;;;11.02;;
52031;SDS011;38044;45.148;39.604;2022-09-24T05:19:49;13.52;;;11.65;;
52031;SDS011;38044;45.148;39.604;2022-09-24T05:22:14;13.30;;;10.75;;
52031;SDS011;38044;45.148;39.604;2022-09-24T05:24:40;13.18;;;11.70;;
52031;SDS011;38044;45.148;39.604;2022-09-24T05:27:07;13.90;;;12.07;;
52031;SDS011;38044;45.148;39.604;2022-09-24T05:29:37;12.85;;;11.45;;
52031;SDS011;38044;45.148;39.604;2022-09-24T05:32:22;15.35;;;11.05;;
52031;SDS011;38044;45.148;39.604;2022-09-24T05:37:15;12.77;;;10.52;;
52031;SDS011;38044;45.148;39.604;2022-09-24T05:39:42;13.10;;;11.80;;
52031;SDS011;38044;45.148;39.604;2022-09-24T05:42:08;14.00;;;10.80;;
52031;SDS011;38044;45.148;39.604;2022-09-24T05:44:38;16.02;;;11.20;;
52031;SDS011;38044;45.148;39.604;2022-09-24T05:47:04;15.25;;;11.02;;
52031;SDS011;38044;45.148;39.604;2022-09-24T05:49:30;16.98;;;11.30;;
52031;SDS011;38044;45.148;39.604;2022-09-24T05:51:56;12.65;;;11.05;;
52031;SDS011;38044;45.148;39.604;2022-09-24T05:54:22;15.90;;;12.45;;
52031;SDS011;38044;45.148;39.604;2022-09-24T05:56:48;14.85;;;11.93;;
52031;SDS011;38044;45.148;39.604;2022-09-24T05:59:14;14.65;;;12.07;;
52031;SDS011;38044;45.148;39.604;2022-09-24T06:01:40;12.75;;;11.30;;
52031;SDS011;38044;45.148;39.604;2022-09-24T06:04:06;12.98;;;11.60;;
52031;SDS011;38044;45.148;39.604;2022-09-24T06:06:32;16.30;;;12.43;;
52031;SDS011;38044;45.148;39.604;2022-09-24T06:08:58;13.88;;;12.20;;
52031;SDS011;38044;45.148;39.604;2022-09-24T06:11:24;14.13;;;11.43;;
52031;SDS011;38044;45.148;39.604;2022-09-24T06:13:51;12.48;;;11.13;;
52031;SDS011;38044;45.148;39.604;2022-09-24T06:16:17;13.77;;;11.68;;
52031;SDS011;38044;45.148;39.604;2022-09-24T06:18:44;14.05;;;11.77;;
52031;SDS011;38044;45.148;39.604;2022-09-24T06:21:12;12.60;;;11.35;;
52031;SDS011;38044;45.148;39.604;2022-09-24T06:23:39;13.35;;;11.95;;
52031;SDS011;38044;45.148;39.604;2022-09-24T06:26:06;14.75;;;12.30;;
52031;SDS011;38044;45.148;39.604;2022-09-24T06:28:35;12.27;;;11.05;;
52031;SDS011;38044;45.148;39.604;2022-09-24T06:31:02;12.15;;;10.80;;
52031;SDS011;38044;45.148;39.604;2022-09-24T06:33:29;11.77;;;10.02;;
52031;SDS011;38044;45.148;39.604;2022-09-24T06:35:58;10.85;;;9.75;;
52031;SDS011;38044;45.148;39.604;2022-09-24T06:38:25;9.85;;;8.43;;
52031;SDS011;38044;45.148;39.604;2022-09-24T06:40:51;10.75;;;8.25;;
52031;SDS011;38044;45.148;39.604;2022-09-24T06:43:17;10.70;;;7.90;;
52031;SDS011;38044;45.148;39.604;2022-09-24T06:45:43;8.70;;;7.82;;
52031;SDS011;38044;45.148;39.604;2022-09-24T06:48:10;9.93;;;7.60;;
52031;SDS011;38044;45.148;39.604;2022-09-24T06:50:38;8.88;;;6.85;;
52031;SDS011;38044;45.148;39.604;2022-09-24T06:53:06;7.80;;;6.95;;
52031;SDS011;38044;45.148;39.604;2022-09-24T06:55:33;10.38;;;7.65;;
52031;SDS011;38044;45.148;39.604;2022-09-24T06:58:01;7.63;;;6.90;;
52031;SDS011;38044;45.148;39.604;2022-09-24T07:00:28;8.70;;;7.10;;
52031;SDS011;38044;45.148;39.604;2022-09-24T07:02:54;8.27;;;7.38;;
52031;SDS011;38044;45.148;39.604;2022-09-24T07:05:20;8.07;;;7.28;;
52031;SDS011;38044;45.148;39.604;2022-09-24T07:07:46;7.95;;;7.15;;
52031;SDS011;38044;45.148;39.604;2022-09-24T07:10:12;8.55;;;7.30;;
52031;SDS011;38044;45.148;39.604;2022-09-24T07:12:39;8.23;;;7.40;;
52031;SDS011;38044;45.148;39.604;2022-09-24T07:15:06;7.82;;;6.47;;
52031;SDS011;38044;45.148;39.604;2022-09-24T07:17:32;11.40;;;7.63;;
52031;SDS011;38044;45.148;39.604;2022-09-24T07:19:58;10.40;;;7.13;;
52031;SDS011;38044;45.148;39.604;2022-09-24T07:22:24;7.32;;;6.63;;
52031;SDS011;38044;45.148;39.604;2022-09-24T07:24:50;8.82;;;6.40;;
52031;SDS011;38044;45.148;39.604;2022-09-24T07:27:16;6.32;;;5.72;;
52031;SDS011;38044;45.148;39.604;2022-09-24T07:29:48;5.93;;;5.32;;
52031;SDS011;38044;45.148;39.604;2022-09-24T07:32:14;6.22;;;5.72;;
52031;SDS011;38044;45.148;39.604;2022-09-24T07:34:44;7.60;;;6.57;;
52031;SDS011;38044;45.148;39.604;2022-09-24T07:37:11;4.90;;;4.30;;
52031;SDS011;38044;45.148;39.604;2022-09-24T07:39:37;6.50;;;5.05;;
52031;SDS011;38044;45.148;39.604;2022-09-24T07:42:04;6.63;;;4.82;;
52031;SDS011;38044;45.148;39.604;2022-09-24T07:44:30;4.35;;;3.95;;
52031;SDS011;38044;45.148;39.604;2022-09-24T07:46:56;3.83;;;3.53;;
52031;SDS011;38044;45.148;39.604;2022-09-24T07:49:22;6.28;;;4.30;;
52031;SDS011;38044;45.148;39.604;2022-09-24T07:51:48;4.97;;;3.90;;
52031;SDS011;38044;45.148;39.604;2022-09-24T07:54:14;4.80;;;4.40;;
52031;SDS011;38044;45.148;39.604;2022-09-24T07:56:41;5.55;;;4.95;;
52031;SDS011;38044;45.148;39.604;2022-09-24T07:59:07;6.10;;;4.90;;
52031;SDS011;38044;45.148;39.604;2022-09-24T08:01:35;4.35;;;3.83;;
52031;SDS011;38044;45.148;39.604;2022-09-24T08:04:02;7.40;;;4.00;;
52031;SDS011;38044;45.148;39.604;2022-09-24T08:06:34;11.82;;;4.30;;
52031;SDS011;38044;45.148;39.604;2022-09-24T08:09:00;6.75;;;4.30;;
52031;SDS011;38044;45.148;39.604;2022-09-24T08:11:26;4.60;;;4.20;;
52031;SDS011;38044;45.148;39.604;2022-09-24T08:13:54;5.93;;;4.15;;
52031;SDS011;38044;45.148;39.604;2022-09-24T08:16:21;5.20;;;4.70;;
52031;SDS011;38044;45.148;39.604;2022-09-24T08:18:48;5.70;;;4.10;;
52031;SDS011;38044;45.148;39.604;2022-09-24T08:21:14;5.90;;;4.38;;
52031;SDS011;38044;45.148;39.604;2022-09-24T08:23:41;5.38;;;4.35;;
52031;SDS011;38044;45.148;39.604;2022-09-24T08:26:08;7.32;;;4.20;;
52031;SDS011;38044;45.148;39.604;2022-09-24T08:28:35;6.43;;;4.32;;
52031;SDS011;38044;45.148;39.604;2022-09-24T08:31:03;5.03;;;4.15;;
52031;SDS011;38044;45.148;39.604;2022-09-24T08:33:33;6.05;;;4.55;;
52031;SDS011;38044;45.148;39.604;2022-09-24T08:36:01;4.90;;;3.97;;
52031;SDS011;38044;45.148;39.604;2022-09-24T08:38:29;6.65;;;4.40;;
52031;SDS011;38044;45.148;39.604;2022-09-24T08:41:02;4.80;;;4.10;;
52031;SDS011;38044;45.148;39.604;2022-09-24T08:46:34;9.27;;;6.90;;
52031;SDS011;38044;45.148;39.604;2022-09-24T08:49:24;6.85;;;6.10;;
52031;SDS011;38044;45.148;39.604;2022-09-24T08:54:26;7.40;;;5.30;;
52031;SDS011;38044;45.148;39.604;2022-09-24T08:56:54;5.57;;;5.00;;
52031;SDS011;38044;45.148;39.604;2022-09-24T09:04:51;5.47;;;4.93;;
52031;SDS011;38044;45.148;39.604;2022-09-24T09:08:01;5.80;;;5.30;;
52031;SDS011;38044;45.148;39.604;2022-09-24T09:10:32;4.95;;;4.40;;
52031;SDS011;38044;45.148;39.604;2022-09-24T09:13:03;4.95;;;4.28;;
52031;SDS011;38044;45.148;39.604;2022-09-24T09:15:46;7.13;;;4.30;;
52031;SDS011;38044;45.148;39.604;2022-09-24T09:18:17;5.15;;;4.57;;
52031;SDS011;38044;45.148;39.604;2022-09-24T09:21:35;5.25;;;4.50;;
52031;SDS011;38044;45.148;39.604;2022-09-24T09:24:26;5.32;;;4.82;;
52031;SDS011;38044;45.148;39.604;2022-09-24T09:27:15;6.78;;;4.35;;
52031;SDS011;38044;45.148;39.604;2022-09-24T09:29:56;4.60;;;4.20;;
52031;SDS011;38044;45.148;39.604;2022-09-24T09:37:28;5.90;;;5.40;;
52031;SDS011;38044;45.148;39.604;2022-09-24T09:40:31;6.80;;;4.63;;
52031;SDS011;38044;45.148;39.604;2022-09-24T09:43:07;5.72;;;5.13;;
52031;SDS011;38044;45.148;39.604;2022-09-24T09:48:19;8.70;;;5.45;;
52031;SDS011;38044;45.148;39.604;2022-09-24T09:50:52;6.38;;;5.25;;
52031;SDS011;38044;45.148;39.604;2022-09-24T09:53:25;5.60;;;5.00;;
52031;SDS011;38044;45.148;39.604;2022-09-24T09:55:53;7.43;;;4.30;;
52031;SDS011;38044;45.148;39.604;2022-09-24T09:58:30;5.97;;;5.38;;
52031;SDS011;38044;45.148;39.604;2022-09-24T10:01:18;5.95;;;4.68;;
52031;SDS011;38044;45.148;39.604;2022-09-24T10:06:21;9.07;;;5.45;;
52031;SDS011;38044;45.148;39.604;2022-09-24T10:08:48;7.00;;;6.00;;
52031;SDS011;38044;45.148;39.604;2022-09-24T10:11:15;7.55;;;6.57;;
52031;SDS011;38044;45.148;39.604;2022-09-24T10:13:41;6.47;;;5.93;;
52031;SDS011;38044;45.148;39.604;2022-09-24T10:16:09;6.85;;;5.95;;
52031;SDS011;38044;45.148;39.604;2022-09-24T10:18:37;6.60;;;5.38;;
52031;SDS011;38044;45.148;39.604;2022-09-24T10:21:04;8.00;;;5.60;;
52031;SDS011;38044;45.148;39.604;2022-09-24T10:23:38;7.82;;;5.57;;
52031;SDS011;38044;45.148;39.604;2022-09-24T10:26:08;8.50;;;6.30;;
52031;SDS011;38044;45.148;39.604;2022-09-24T10:28:45;15.00;;;7.88;;
52031;SDS011;38044;45.148;39.604;2022-09-24T10:31:38;7.88;;;5.78;;
52031;SDS011;38044;45.148;39.604;2022-09-24T10:34:17;16.10;;;7.22;;
52031;SDS011;38044;45.148;39.604;2022-09-24T10:36:51;10.13;;;5.57;;
52031;SDS011;38044;45.148;39.604;2022-09-24T10:39:28;7.65;;;5.22;;
52031;SDS011;38044;45.148;39.604;2022-09-24T10:41:55;8.55;;;5.47;;
52031;SDS011;38044;45.148;39.604;2022-09-24T10:44:22;6.47;;;5.25;;
52031;SDS011;38044;45.148;39.604;2022-09-24T10:55:38;9.13;;;4.03;;
52031;SDS011;38044;45.148;39.604;2022-09-24T11:01:16;5.68;;;3.65;;
52031;SDS011;38044;45.148;39.604;2022-09-24T11:09:33;5.45;;;2.97;;
52031;SDS011;38044;45.148;39.604;2022-09-24T11:15:26;4.50;;;3.38;;
52031;SDS011;38044;45.148;39.604;2022-09-24T11:26:59;5.00;;;3.03;;
52031;SDS011;38044;45.148;39.604;2022-09-24T11:32:37;10.57;;;4.68;;
52031;SDS011;38044;45.148;39.604;2022-09-24T11:38:35;7.03;;;2.40;;
52031;SDS011;38044;45.148;39.604;2022-09-24T11:43:53;5.82;;;2.70;;
52031;SDS011;38044;45.148;39.604;2022-09-24T11:46:29;3.83;;;2.38;;
52031;SDS011;38044;45.148;39.604;2022-09-24T11:49:17;6.13;;;2.30;;
52031;SDS011;38044;45.148;39.604;2022-09-24T11:57:32;4.18;;;2.70;;
52031;SDS011;38044;45.148;39.604;2022-09-24T12:00:04;17.17;;;6.97;;
52031;SDS011;38044;45.148;39.604;2022-09-24T12:02:49;3.75;;;2.17;;
52031;SDS011;38044;45.148;39.604;2022-09-24T12:07:52;4.43;;;4.00;;
52031;SDS011;38044;45.148;39.604;2022-09-24T12:10:30;4.68;;;3.28;;
52031;SDS011;38044;45.148;39.604;2022-09-24T12:18:31;2.22;;;1.60;;
52031;SDS011;38044;45.148;39.604;2022-09-24T12:21:36;3.35;;;1.92;;
52031;SDS011;38044;45.148;39.604;2022-09-24T12:27:11;2.42;;;1.90;;
52031;SDS011;38044;45.148;39.604;2022-09-24T12:35:22;3.25;;;1.27;;
52031;SDS011;38044;45.148;39.604;2022-09-24T12:38:12;2.42;;;1.38;;
52031;SDS011;38044;45.148;39.604;2022-09-24T12:40:50;9.27;;;3.20;;
52031;SDS011;38044;45.148;39.604;2022-09-24T12:43:24;11.95;;;6.25;;
52031;SDS011;38044;45.148;39.604;2022-09-24T12:45:57;16.02;;;8.82;;
52031;SDS011;38044;45.148;39.604;2022-09-24T12:48:27;7.35;;;4.60;;
52031;SDS011;38044;45.148;39.604;2022-09-24T12:50:59;1.60;;;1.50;;
52031;SDS011;38044;45.148;39.604;2022-09-24T12:53:37;2.80;;;1.38;;
52031;SDS011;38044;45.148;39.604;2022-09-24T12:56:05;1.92;;;0.95;;
52031;SDS011;38044;45.148;39.604;2022-09-24T12:58:41;1.17;;;1.08;;
52031;SDS011;38044;45.148;39.604;2022-09-24T13:03:39;2.08;;;1.35;;
52031;SDS011;38044;45.148;39.604;2022-09-24T13:09:01;3.30;;;0.90;;
52031;SDS011;38044;45.148;39.604;2022-09-24T13:11:46;3.47;;;1.00;;
52031;SDS011;38044;45.148;39.604;2022-09-24T13:16:39;1.70;;;0.90;;
52031;SDS011;38044;45.148;39.604;2022-09-24T13:27:57;2.53;;;1.00;;
52031;SDS011;38044;45.148;39.604;2022-09-24T13:38:36;3.35;;;1.88;;
52031;SDS011;38044;45.148;39.604;2022-09-24T13:43:51;7.38;;;4.40;;
52031;SDS011;38044;45.148;39.604;2022-09-24T13:46:25;7.22;;;3.83;;
52031;SDS011;38044;45.148;39.604;2022-09-24T13:48:53;5.85;;;4.28;;
52031;SDS011;38044;45.148;39.604;2022-09-24T13:51:27;5.43;;;2.55;;
52031;SDS011;38044;45.148;39.604;2022-09-24T13:54:12;4.15;;;1.67;;
52031;SDS011;38044;45.148;39.604;2022-09-24T13:59:44;4.57;;;3.55;;
52031;SDS011;38044;45.148;39.604;2022-09-24T14:02:23;4.72;;;3.70;;
52031;SDS011;38044;45.148;39.604;2022-09-24T14:04:55;4.35;;;2.38;;
52031;SDS011;38044;45.148;39.604;2022-09-24T14:07:23;6.10;;;3.45;;
52031;SDS011;38044;45.148;39.604;2022-09-24T14:10:00;2.63;;;2.30;;
52031;SDS011;38044;45.148;39.604;2022-09-24T14:12:31;3.40;;;2.13;;
52031;SDS011;38044;45.148;39.604;2022-09-24T14:14:57;6.57;;;4.70;;
52031;SDS011;38044;45.148;39.604;2022-09-24T14:17:24;4.43;;;2.30;;
52031;SDS011;38044;45.148;39.604;2022-09-24T14:19:54;3.30;;;1.75;;
52031;SDS011;38044;45.148;39.604;2022-09-24T14:25:08;3.35;;;1.67;;
52031;SDS011;38044;45.148;39.604;2022-09-24T14:27:41;5.00;;;3.97;;
52031;SDS011;38044;45.148;39.604;2022-09-24T14:32:42;6.60;;;2.38;;
52031;SDS011;38044;45.148;39.604;2022-09-24T14:35:16;6.45;;;2.20;;
52031;SDS011;38044;45.148;39.604;2022-09-24T14:37:56;2.50;;;2.20;;
52031;SDS011;38044;45.148;39.604;2022-09-24T14:40:48;4.53;;;1.70;;
52031;SDS011;38044;45.148;39.604;2022-09-24T14:46:44;5.00;;;4.35;;
52031;SDS011;38044;45.148;39.604;2022-09-24T14:49:22;3.40;;;2.47;;
52031;SDS011;38044;45.148;39.604;2022-09-24T14:51:52;3.15;;;2.00;;
52031;SDS011;38044;45.148;39.604;2022-09-24T14:54:32;4.60;;;2.70;;
52031;SDS011;38044;45.148;39.604;2022-09-24T14:57:07;4.30;;;2.35;;
52031;SDS011;38044;45.148;39.604;2022-09-24T14:59:36;3.67;;;2.17;;
52031;SDS011;38044;45.148;39.604;2022-09-24T15:04:44;3.45;;;2.03;;
52031;SDS011;38044;45.148;39.604;2022-09-24T15:07:16;18.25;;;6.03;;
52031;SDS011;38044;45.148;39.604;2022-09-24T15:09:51;8.57;;;3.38;;
52031;SDS011;38044;45.148;39.604;2022-09-24T15:12:26;6.65;;;2.90;;
52031;SDS011;38044;45.148;39.604;2022-09-24T15:14:58;11.40;;;5.57;;
52031;SDS011;38044;45.148;39.604;2022-09-24T15:17:32;3.50;;;1.80;;
52031;SDS011;38044;45.148;39.604;2022-09-24T15:19:59;3.17;;;2.60;;
52031;SDS011;38044;45.148;39.604;2022-09-24T15:22:27;3.30;;;2.00;;
52031;SDS011;38044;45.148;39.604;2022-09-24T15:24:54;3.55;;;2.28;;
52031;SDS011;38044;45.148;39.604;2022-09-24T15:27:25;3.42;;;2.55;;
52031;SDS011;38044;45.148;39.604;2022-09-24T15:29:59;3.55;;;2.65;;
52031;SDS011;38044;45.148;39.604;2022-09-24T15:32:27;4.13;;;2.13;;
52031;SDS011;38044;45.148;39.604;2022-09-24T15:34:59;2.38;;;2.10;;
52031;SDS011;38044;45.148;39.604;2022-09-24T15:37:27;2.58;;;2.05;;
52031;SDS011;38044;45.148;39.604;2022-09-24T15:42:55;2.10;;;1.90;;
52031;SDS011;38044;45.148;39.604;2022-09-24T15:45:21;4.05;;;2.40;;
52031;SDS011;38044;45.148;39.604;2022-09-24T15:47:49;2.85;;;2.50;;
52031;SDS011;38044;45.148;39.604;2022-09-24T15:50:16;6.28;;;3.60;;
52031;SDS011;38044;45.148;39.604;2022-09-24T15:52:47;6.28;;;3.35;;
52031;SDS011;38044;45.148;39.604;2022-09-24T15:55:18;4.40;;;2.80;;
52031;SDS011;38044;45.148;39.604;2022-09-24T15:57:45;4.85;;;2.53;;
52031;SDS011;38044;45.148;39.604;2022-09-24T16:00:18;3.60;;;2.70;;
52031;SDS011;38044;45.148;39.604;2022-09-24T16:02:53;7.50;;;3.78;;
52031;SDS011;38044;45.148;39.604;2022-09-24T16:05:20;5.97;;;3.63;;
52031;SDS011;38044;45.148;39.604;2022-09-24T16:07:47;6.88;;;3.40;;
52031;SDS011;38044;45.148;39.604;2022-09-24T16:10:13;4.22;;;3.47;;
52031;SDS011;38044;45.148;39.604;2022-09-24T16:12:40;4.22;;;3.53;;
52031;SDS011;38044;45.148;39.604;2022-09-24T16:15:06;4.57;;;2.85;;
52031;SDS011;38044;45.148;39.604;2022-09-24T16:17:36;4.43;;;2.63;;
52031;SDS011;38044;45.148;39.604;2022-09-24T16:20:02;3.63;;;2.90;;
52031;SDS011;38044;45.148;39.604;2022-09-24T16:22:29;4.72;;;2.65;;
52031;SDS011;38044;45.148;39.604;2022-09-24T16:24:55;4.18;;;2.67;;
52031;SDS011;38044;45.148;39.604;2022-09-24T16:27:21;4.95;;;2.47;;
52031;SDS011;38044;45.148;39.604;2022-09-24T16:29:47;7.07;;;2.42;;
52031;SDS011;38044;45.148;39.604;2022-09-24T16:32:13;3.00;;;2.30;;
52031;SDS011;38044;45.148;39.604;2022-09-24T16:34:39;4.22;;;2.50;;
52031;SDS011;38044;45.148;39.604;2022-09-24T16:37:06;4.00;;;2.47;;
52031;SDS011;38044;45.148;39.604;2022-09-24T16:39:32;5.10;;;2.20;;
52031;SDS011;38044;45.148;39.604;2022-09-24T16:41:58;4.00;;;2.75;;
52031;SDS011;38044;45.148;39.604;2022-09-24T16:44:24;3.35;;;2.10;;
52031;SDS011;38044;45.148;39.604;2022-09-24T16:46:50;9.38;;;3.53;;
52031;SDS011;38044;45.148;39.604;2022-09-24T16:49:15;7.22;;;3.63;;
52031;SDS011;38044;45.148;39.604;2022-09-24T16:51:41;6.75;;;3.30;;
52031;SDS011;38044;45.148;39.604;2022-09-24T16:54:07;7.60;;;2.63;;
52031;SDS011;38044;45.148;39.604;2022-09-24T16:56:33;4.13;;;2.90;;
52031;SDS011;38044;45.148;39.604;2022-09-24T16:58:59;4.43;;;2.58;;
52031;SDS011;38044;45.148;39.604;2022-09-24T17:01:25;7.18;;;2.67;;
52031;SDS011;38044;45.148;39.604;2022-09-24T17:03:54;4.00;;;2.80;;
52031;SDS011;38044;45.148;39.604;2022-09-24T17:06:24;31.10;;;8.70;;
52031;SDS011;38044;45.148;39.604;2022-09-24T17:08:52;41.08;;;12.93;;
52031;SDS011;38044;45.148;39.604;2022-09-24T17:11:36;37.92;;;11.45;;
52031;SDS011;38044;45.148;39.604;2022-09-24T17:14:06;42.63;;;14.43;;
52031;SDS011;38044;45.148;39.604;2022-09-24T17:16:35;48.22;;;13.60;;
52031;SDS011;38044;45.148;39.604;2022-09-24T17:19:01;15.80;;;6.70;;